createdAt,value
2023-05-13T00:01:51.578Z,95964.03
2023-05-13T00:04:20.549Z,95962.44
2023-05-13T00:06:48.142Z,95971.44
2023-05-13T00:09:15.936Z,95962.69
2023-05-13T00:11:43.564Z,95963.72
2023-05-13T00:14:12.034Z,95961.28
2023-05-13T00:16:39.772Z,95966.63
2023-05-13T00:19:07.821Z,95963.16
2023-05-13T00:21:37.066Z,95963.41
2023-05-13T00:24:05.328Z,95961.53
2023-05-13T00:26:32.930Z,95958.88
2023-05-13T00:29:00.557Z,95962.34
2023-05-13T00:31:28.175Z,95955.44
2023-05-13T00:33:55.970Z,95962.34
2023-05-13T00:36:23.809Z,95969.53
2023-05-13T00:38:53.076Z,95959.91
2023-05-13T00:41:21.697Z,95956.69
2023-05-13T00:43:49.383Z,95962.00
2023-05-13T00:46:17.261Z,95958.53
2023-05-13T00:48:44.970Z,95957.72
2023-05-13T00:51:12.580Z,95961.19
2023-05-13T00:53:40.953Z,95966.75
2023-05-13T00:56:09.964Z,95970.47
2023-05-13T00:58:37.685Z,95967.81
2023-05-13T01:01:14.327Z,95966.19
2023-05-13T01:03:52.206Z,95969.91
2023-05-13T01:06:23.721Z,95963.75
2023-05-13T01:08:59.267Z,95961.09
2023-05-13T01:11:30.628Z,95961.09
2023-05-13T01:14:02.329Z,95958.69
2023-05-13T01:16:36.418Z,95961.59
2023-05-13T01:19:13.853Z,95965.31
2023-05-13T01:21:42.859Z,95967.97
2023-05-13T01:24:10.497Z,95964.53
2023-05-13T01:26:38.204Z,95970.63
2023-05-13T01:29:05.896Z,95969.00
2023-05-13T01:31:33.918Z,95962.09
2023-05-13T01:34:02.272Z,95960.47
2023-05-13T01:36:29.959Z,95963.94
2023-05-13T01:39:02.013Z,95970.31
2023-05-13T01:41:29.699Z,95962.34
2023-05-13T01:43:57.598Z,95963.94
2023-05-13T01:46:25.381Z,95963.94
2023-05-13T01:48:53.891Z,95963.16
2023-05-13T01:51:21.506Z,95966.03
2023-05-13T01:53:49.146Z,95967.91
2023-05-13T01:56:18.220Z,95962.84
2023-05-13T01:58:45.983Z,95966.28
2023-05-13T02:01:13.585Z,95969.19
2023-05-13T02:03:41.361Z,95974.75
2023-05-13T02:06:09.135Z,95974.75
2023-05-13T02:08:36.765Z,95968.63
2023-05-13T02:11:04.332Z,95977.66
2023-05-13T02:13:33.332Z,95980.31
2023-05-13T02:16:01.025Z,95975.00
2023-05-13T02:18:28.729Z,95980.31
2023-05-13T02:20:57.388Z,95981.34
2023-05-13T02:23:25.046Z,95982.41
2023-05-13T02:25:52.754Z,95984.25
2023-05-13T02:28:20.347Z,95984.84
2023-05-13T02:30:49.282Z,95985.06
2023-05-13T02:33:17.010Z,95984.50
2023-05-13T02:35:44.641Z,95983.69
2023-05-13T02:38:12.351Z,95972.25
2023-05-13T02:40:40.088Z,95987.38
2023-05-13T02:43:07.746Z,95982.31
2023-05-13T02:45:35.447Z,95977.00
2023-05-13T02:48:04.932Z,95979.91
2023-05-13T02:50:32.752Z,95978.06
2023-05-13T02:53:00.438Z,95980.13
2023-05-13T02:55:28.106Z,95979.34
2023-05-13T02:57:56.716Z,95982.78
2023-05-13T03:00:24.380Z,95989.19
2023-05-13T03:02:52.172Z,95984.66
2023-05-13T03:05:21.325Z,95981.19
2023-05-13T03:07:48.952Z,95986.53
2023-05-13T03:10:16.855Z,95979.56
2023-05-13T03:12:44.492Z,95983.03
2023-05-13T03:15:12.342Z,95984.09
2023-05-13T03:17:39.977Z,95989.41
2023-05-13T03:20:08.917Z,95980.88
2023-05-13T03:22:39.489Z,95986.19
2023-05-13T03:25:07.834Z,95991.75
2023-05-13T03:27:35.652Z,95998.13
2023-05-13T03:30:03.283Z,95992.00
2023-05-13T03:32:31.951Z,95990.38
2023-05-13T03:35:00.788Z,95999.97
2023-05-13T03:37:28.500Z,95995.69
2023-05-13T03:39:57.550Z,95989.34
2023-05-13T03:42:26.153Z,95992.78
2023-05-13T03:44:53.678Z,95995.69
2023-05-13T03:47:21.298Z,95993.03
2023-05-13T03:49:48.977Z,95994.06
2023-05-13T03:52:16.907Z,95996.72
2023-05-13T03:54:44.485Z,95999.38
2023-05-13T03:57:13.510Z,96003.91
2023-05-13T03:59:41.208Z,95996.97
2023-05-13T04:02:08.835Z,96004.94
2023-05-13T04:04:36.595Z,96006.81
2023-05-13T04:07:04.329Z,96007.59
2023-05-13T04:09:31.888Z,96008.44
2023-05-13T04:11:59.706Z,96008.66
2023-05-13T04:14:28.693Z,96010.50
2023-05-13T04:16:56.418Z,96015.56
2023-05-13T04:19:24.031Z,96013.97
2023-05-13T04:21:51.702Z,96011.88
2023-05-13T04:24:19.524Z,96014.53
2023-05-13T04:26:47.101Z,96019.06
2023-05-13T04:29:14.780Z,96017.19
2023-05-13T04:31:43.799Z,96018.25
2023-05-13T04:34:11.458Z,96020.66
2023-05-13T04:36:39.148Z,96028.63
2023-05-13T04:39:06.801Z,96027.03
2023-05-13T04:41:34.453Z,96035.00
2023-05-13T04:44:02.505Z,96030.25
2023-05-13T04:46:30.233Z,96027.34
2023-05-13T04:48:59.247Z,96027.34
2023-05-13T04:51:27.767Z,96035.34
2023-05-13T04:53:55.749Z,96033.72
2023-05-13T04:56:23.348Z,96034.53
2023-05-13T04:58:51.010Z,96041.44
2023-05-13T05:01:18.705Z,96041.22
2023-05-13T05:03:46.338Z,96047.91
2023-05-13T05:06:15.931Z,96039.13
2023-05-13T05:08:44.536Z,96034.63
2023-05-13T05:11:12.181Z,96039.69
2023-05-13T05:13:39.752Z,96041.28
2023-05-13T05:16:08.576Z,96050.66
2023-05-13T05:18:36.550Z,96054.09
2023-05-13T05:21:04.425Z,96050.88
2023-05-13T05:23:33.465Z,96059.66
2023-05-13T05:26:11.117Z,96061.28
2023-05-13T05:28:40.390Z,96065.81
2023-05-13T05:31:08.346Z,96053.53
2023-05-13T05:33:36.273Z,96058.06
2023-05-13T05:36:04.000Z,96057.00
2023-05-13T05:38:32.932Z,96062.31
2023-05-13T05:41:00.688Z,96059.66
2023-05-13T05:43:28.319Z,96063.16
2023-05-13T05:45:56.538Z,96061.28
2023-05-13T05:48:24.182Z,96069.00
2023-05-13T05:50:51.750Z,96069.56
2023-05-13T05:53:19.384Z,96072.81
2023-05-13T05:55:48.344Z,96068.06
2023-05-13T05:58:16.576Z,96065.97
2023-05-13T06:00:44.323Z,96070.81
2023-05-13T06:03:12.090Z,96074.59
2023-05-13T06:05:39.890Z,96073.06
2023-05-13T06:08:07.510Z,96072.00
2023-05-13T06:10:35.224Z,96075.22
2023-05-13T06:13:04.196Z,96073.16
2023-05-13T06:15:31.828Z,96080.22
2023-05-13T06:17:59.955Z,96080.75
2023-05-13T06:20:27.629Z,96076.47
2023-05-13T06:22:55.214Z,96079.72
2023-05-13T06:25:22.922Z,96082.22
2023-05-13T06:27:50.604Z,96081.00
2023-05-13T06:30:20.003Z,96080.28
2023-05-13T06:33:00.037Z,96087.31
2023-05-13T06:35:29.014Z,96080.44
2023-05-13T06:37:56.851Z,96076.78
2023-05-13T06:40:24.728Z,96082.44
2023-05-13T06:42:52.565Z,96083.81
2023-05-13T06:45:23.347Z,96081.13
2023-05-13T06:47:51.352Z,96078.47
2023-05-13T06:50:19.539Z,96080.66
2023-05-13T06:52:47.176Z,96077.50
2023-05-13T06:55:16.441Z,96080.41
2023-05-13T06:57:46.598Z,96083.00
2023-05-13T07:00:15.426Z,96084.28
2023-05-13T07:02:44.862Z,96082.44
2023-05-13T07:05:13.180Z,96080.09
2023-05-13T07:07:40.849Z,96079.22
2023-05-13T07:10:08.830Z,96072.75
2023-05-13T07:12:36.614Z,96085.25
2023-05-13T07:15:04.525Z,96085.50
2023-05-13T07:17:32.279Z,96084.22
2023-05-13T07:20:01.338Z,96086.88
2023-05-13T07:22:28.955Z,96087.19
2023-05-13T07:24:57.133Z,96091.47
2023-05-13T07:27:24.755Z,96081.69
2023-05-13T07:29:52.397Z,96084.59
2023-05-13T07:32:20.023Z,96078.66
2023-05-13T07:34:47.614Z,96086.00
2023-05-13T07:37:17.158Z,96080.34
2023-05-13T07:39:44.719Z,96084.63
2023-05-13T07:42:12.401Z,96089.72
2023-05-13T07:44:40.338Z,96095.66
2023-05-13T07:47:08.141Z,96088.34
2023-05-13T07:49:35.826Z,96091.84
2023-05-13T07:52:03.451Z,96087.41
2023-05-13T07:54:32.410Z,96084.50
2023-05-13T07:57:00.555Z,96085.63
2023-05-13T07:59:28.171Z,96088.38
2023-05-13T08:01:55.918Z,96091.66
2023-05-13T08:04:23.914Z,96091.91
2023-05-13T08:06:51.708Z,96091.84
2023-05-13T08:09:19.286Z,96091.47
2023-05-13T08:11:48.369Z,96092.19
2023-05-13T08:14:15.917Z,96092.09
2023-05-13T08:16:43.602Z,96089.94
2023-05-13T08:19:11.295Z,96082.19
2023-05-13T08:21:38.976Z,96084.03
2023-05-13T08:24:07.530Z,96089.63
2023-05-13T08:26:35.109Z,96101.06
2023-05-13T08:29:04.214Z,96088.34
2023-05-13T08:31:32.262Z,96090.25
2023-05-13T08:33:59.954Z,96095.41
2023-05-13T08:36:27.612Z,96100.00
2023-05-13T08:38:55.162Z,96098.44
2023-05-13T08:41:23.567Z,96096.66
2023-05-13T08:43:53.184Z,96093.47
2023-05-13T08:46:25.709Z,96106.84
2023-05-13T08:48:55.897Z,96091.50
2023-05-13T08:51:23.597Z,96101.38
2023-05-13T08:53:53.002Z,96099.06
2023-05-13T08:56:22.171Z,96109.28
2023-05-13T08:58:49.810Z,96105.81
2023-05-13T09:01:18.209Z,96112.94
2023-05-13T09:03:56.030Z,96108.88
2023-05-13T09:06:23.730Z,96116.81
2023-05-13T09:08:51.763Z,96114.19
2023-05-13T09:11:19.749Z,96117.28
2023-05-13T09:13:57.876Z,96117.69
2023-05-13T09:16:26.731Z,96112.03
2023-05-13T09:18:59.846Z,96120.59
2023-05-13T09:21:31.638Z,96118.19
2023-05-13T09:24:11.442Z,96118.84
2023-05-13T09:26:40.231Z,96112.53
2023-05-13T09:29:19.494Z,96107.19
2023-05-13T09:31:49.712Z,96113.34
2023-05-13T09:34:27.232Z,96108.81
2023-05-13T09:37:00.377Z,96109.69
2023-05-13T09:39:28.641Z,96111.97
2023-05-13T09:41:56.366Z,96109.09
2023-05-13T09:44:24.080Z,96109.84
2023-05-13T09:46:54.008Z,96105.09
2023-05-13T09:49:26.969Z,96117.41
2023-05-13T09:51:54.734Z,96120.34
2023-05-13T09:54:22.276Z,96119.47
2023-05-13T09:56:49.896Z,96120.25
2023-05-13T09:59:17.841Z,96117.91
2023-05-13T10:01:46.465Z,96123.56
2023-05-13T10:04:15.337Z,96122.84
2023-05-13T10:06:44.746Z,96124.56
2023-05-13T10:09:12.667Z,96120.09
2023-05-13T10:11:42.736Z,96126.38
2023-05-13T10:14:10.467Z,96128.88
2023-05-13T10:16:38.624Z,96123.44
2023-05-13T10:19:07.250Z,96130.63
2023-05-13T10:21:36.787Z,96137.09
2023-05-13T10:24:06.847Z,96129.25
2023-05-13T10:26:35.450Z,96125.50
2023-05-13T10:29:03.411Z,96127.47
2023-05-13T10:31:32.073Z,96127.59
2023-05-13T10:33:59.853Z,96126.00
2023-05-13T10:36:53.356Z,96123.34
2023-05-13T10:39:42.690Z,96123.84
2023-05-13T10:42:35.198Z,96124.59
2023-05-13T10:45:02.948Z,96135.31
2023-05-13T10:47:33.264Z,96129.47
2023-05-13T10:50:04.817Z,96126.47
2023-05-13T10:52:42.542Z,96126.66
2023-05-13T10:55:18.563Z,96128.16
2023-05-13T10:58:11.941Z,96121.94
2023-05-13T11:00:40.959Z,96126.28
2023-05-13T11:03:14.040Z,96128.88
2023-05-13T11:05:44.568Z,96124.75
2023-05-13T11:08:12.738Z,96127.81
2023-05-13T11:10:41.920Z,96113.38
2023-05-13T11:13:22.520Z,96129.13
2023-05-13T11:15:51.413Z,96119.56
2023-05-13T11:18:20.127Z,96118.22
2023-05-13T11:20:53.317Z,96112.13
2023-05-13T11:23:21.598Z,96108.19
2023-05-13T11:26:12.359Z,96107.75
2023-05-13T11:29:00.339Z,96104.63
2023-05-13T11:31:29.797Z,96101.19
2023-05-13T11:34:17.032Z,96099.66
2023-05-13T11:36:48.798Z,96107.47
2023-05-13T11:39:17.986Z,96099.25
2023-05-13T11:41:48.048Z,96095.56
2023-05-13T11:44:17.614Z,96098.25
2023-05-13T11:46:53.487Z,96094.28
2023-05-13T11:49:40.491Z,96100.19
2023-05-13T11:52:10.464Z,96097.25
2023-05-13T11:54:43.217Z,96098.91
2023-05-13T11:57:33.104Z,96092.78
2023-05-13T12:00:02.156Z,96101.81
2023-05-13T12:02:31.945Z,96102.31
2023-05-13T12:05:01.835Z,96098.56
2023-05-13T12:07:29.644Z,96098.88
2023-05-13T12:09:58.839Z,96098.63
2023-05-13T12:12:27.734Z,96106.31
2023-05-13T12:14:57.612Z,96108.75
2023-05-13T12:17:25.771Z,96104.22
2023-05-13T12:20:06.473Z,96105.03
2023-05-13T12:22:34.136Z,96103.97
2023-05-13T12:25:03.603Z,96101.28
2023-05-13T12:27:31.256Z,96101.91
2023-05-13T12:30:00.242Z,96096.59
2023-05-13T12:32:28.188Z,96098.16
2023-05-13T12:34:55.745Z,96091.47
2023-05-13T12:37:25.950Z,96097.34
2023-05-13T12:40:10.344Z,96099.34
2023-05-13T12:42:38.294Z,96106.00
2023-05-13T12:45:08.487Z,96101.97
2023-05-13T12:47:49.664Z,96096.34
2023-05-13T12:50:17.396Z,96089.19
2023-05-13T12:52:45.095Z,96099.63
2023-05-13T12:55:13.888Z,96092.31
2023-05-13T12:57:42.401Z,96103.00
2023-05-13T13:00:12.613Z,96101.00
2023-05-13T13:02:41.752Z,96098.34
2023-05-13T13:05:10.049Z,96106.09
2023-05-13T13:07:38.071Z,96103.06
2023-05-13T13:10:06.826Z,96105.75
2023-05-13T13:12:34.489Z,96098.84
2023-05-13T13:15:02.261Z,96106.50
2023-05-13T13:17:31.282Z,96097.91
2023-05-13T13:19:58.923Z,96098.78
2023-05-13T13:22:26.943Z,96103.13
2023-05-13T13:24:54.510Z,96100.16
2023-05-13T13:27:22.169Z,96104.38
2023-05-13T13:29:49.844Z,96111.13
2023-05-13T13:32:17.609Z,96101.50
2023-05-13T13:34:46.977Z,96102.44
2023-05-13T13:37:14.607Z,96092.88
2023-05-13T13:39:42.288Z,96103.63
2023-05-13T13:42:09.851Z,96091.25
2023-05-13T13:44:39.348Z,96095.25
2023-05-13T13:47:06.986Z,96096.63
2023-05-13T13:49:34.577Z,96091.53
2023-05-13T13:52:03.530Z,96094.78
2023-05-13T13:54:31.319Z,96091.25
2023-05-13T13:56:58.983Z,96089.38
2023-05-13T13:59:26.738Z,96093.94
2023-05-13T14:01:54.613Z,96097.75
2023-05-13T14:04:23.577Z,96097.09
2023-05-13T14:06:52.150Z,96102.41
2023-05-13T14:09:21.150Z,96102.72
2023-05-13T14:11:48.803Z,96099.50
2023-05-13T14:14:16.333Z,96095.63
2023-05-13T14:16:44.121Z,96103.44
2023-05-13T14:19:12.301Z,96098.13
2023-05-13T14:21:40.080Z,96095.19
2023-05-13T14:24:08.826Z,96092.50
2023-05-13T14:26:37.767Z,96096.66
2023-05-13T14:29:05.409Z,96100.34
2023-05-13T14:31:33.119Z,96088.34
2023-05-13T14:34:00.829Z,96081.00
2023-05-13T14:36:28.519Z,96080.34
2023-05-13T14:38:56.126Z,96087.91
2023-05-13T14:41:24.108Z,96087.56
2023-05-13T14:43:53.014Z,96090.41
2023-05-13T14:46:20.724Z,96094.59
2023-05-13T14:48:48.357Z,96092.00
2023-05-13T14:51:16.121Z,96086.44
2023-05-13T14:53:43.967Z,96098.53
2023-05-13T14:56:11.985Z,96084.41
2023-05-13T14:58:39.684Z,96083.66
2023-05-13T15:01:08.685Z,96084.00
2023-05-13T15:03:36.451Z,96087.47
2023-05-13T15:06:04.833Z,96080.72
2023-05-13T15:08:32.643Z,96079.66
2023-05-13T15:11:00.785Z,96081.75
2023-05-13T15:13:29.673Z,96086.56
2023-05-13T15:15:57.291Z,96081.31
2023-05-13T15:18:26.294Z,96077.00
2023-05-13T15:20:53.998Z,96087.66
2023-05-13T15:23:21.592Z,96088.16
2023-05-13T15:25:49.373Z,96078.00
2023-05-13T15:28:16.995Z,96080.66
2023-05-13T15:30:44.656Z,96083.84
2023-05-13T15:33:12.467Z,96084.03
2023-05-13T15:35:42.362Z,96091.22
2023-05-13T15:38:10.674Z,96081.59
2023-05-13T15:40:38.844Z,96091.22
2023-05-13T15:43:06.471Z,96093.09
2023-05-13T15:45:34.086Z,96097.81
2023-05-13T15:48:01.688Z,96091.41
2023-05-13T15:50:29.338Z,96092.44
2023-05-13T15:52:58.359Z,96087.09
2023-05-13T15:55:25.992Z,96084.72
2023-05-13T15:57:53.607Z,96090.66
2023-05-13T16:00:21.500Z,96081.81
2023-05-13T16:02:49.425Z,96088.00
2023-05-13T16:05:19.185Z,96095.66
2023-05-13T16:07:46.920Z,96090.56
2023-05-13T16:10:16.262Z,96084.94
2023-05-13T16:12:44.002Z,96084.41
2023-05-13T16:15:12.316Z,96082.75
2023-05-13T16:17:39.920Z,96099.00
2023-05-13T16:20:19.737Z,96101.13
2023-05-13T16:22:47.504Z,96098.13
2023-05-13T16:25:16.508Z,96101.31
2023-05-13T16:27:44.265Z,96098.63
2023-05-13T16:30:12.686Z,96102.38
2023-05-13T16:32:40.369Z,96095.44
2023-05-13T16:35:09.921Z,96094.06
2023-05-13T16:37:37.756Z,96097.56
2023-05-13T16:40:06.411Z,96100.47
2023-05-13T16:42:35.425Z,96100.22
2023-05-13T16:45:03.065Z,96105.81
2023-05-13T16:47:30.707Z,96106.59
2023-05-13T16:49:58.586Z,96099.09
2023-05-13T16:52:26.757Z,96108.41
2023-05-13T16:54:56.075Z,96096.94
2023-05-13T16:57:24.907Z,96103.31
2023-05-13T16:59:54.223Z,96101.72
2023-05-13T17:02:21.916Z,96100.91
2023-05-13T17:04:49.581Z,96106.25
2023-05-13T17:07:17.154Z,96103.00
2023-05-13T17:09:45.551Z,96100.34
2023-05-13T17:12:13.116Z,96106.75
2023-05-13T17:14:40.781Z,96109.91
2023-05-13T17:17:09.953Z,96106.69
2023-05-13T17:19:37.654Z,96103.47
2023-05-13T17:22:05.548Z,96102.91
2023-05-13T17:24:33.126Z,96103.41
2023-05-13T17:27:00.734Z,96106.59
2023-05-13T17:29:28.310Z,96103.34
2023-05-13T17:31:55.888Z,96107.31
2023-05-13T17:34:24.873Z,96113.69
2023-05-13T17:36:52.468Z,96111.53
2023-05-13T17:39:20.110Z,96105.66
2023-05-13T17:41:47.740Z,96105.91
2023-05-13T17:44:15.405Z,96105.34
2023-05-13T17:46:43.056Z,96107.69
2023-05-13T17:49:10.805Z,96103.97
2023-05-13T17:51:39.824Z,96102.34
2023-05-13T17:54:07.520Z,96105.28
2023-05-13T17:56:35.165Z,96102.06
2023-05-13T17:59:02.774Z,96103.09
2023-05-13T18:01:30.362Z,96106.00
2023-05-13T18:03:58.032Z,96111.34
2023-05-13T18:06:25.568Z,96108.44
2023-05-13T18:08:54.523Z,96104.41
2023-05-13T18:11:22.671Z,96106.75
2023-05-13T18:13:50.370Z,96107.28
2023-05-13T18:16:19.475Z,96113.09
2023-05-13T18:18:48.506Z,96110.06
2023-05-13T18:21:16.193Z,96106.06
2023-05-13T18:23:45.715Z,96108.16
2023-05-13T18:26:14.724Z,96105.97
2023-05-13T18:28:44.689Z,96107.28
2023-05-13T18:31:12.486Z,96111.00
2023-05-13T18:33:40.202Z,96109.38
2023-05-13T18:36:09.992Z,96109.63
2023-05-13T18:38:38.342Z,96114.16
2023-05-13T18:41:06.120Z,96116.50
2023-05-13T18:43:35.018Z,96116.75
2023-05-13T18:46:02.691Z,96118.88
2023-05-13T18:48:30.442Z,96115.63
2023-05-13T18:50:58.022Z,96126.50
2023-05-13T18:53:25.651Z,96126.75
2023-05-13T18:55:53.427Z,96119.25
2023-05-13T18:58:21.055Z,96121.13
2023-05-13T19:00:50.062Z,96123.00
2023-05-13T19:03:18.028Z,96119.75
2023-05-13T19:05:46.246Z,96117.09
2023-05-13T19:08:13.821Z,96122.91
2023-05-13T19:10:41.429Z,96122.34
2023-05-13T19:13:09.302Z,96125.25
2023-05-13T19:15:37.102Z,96128.97
2023-05-13T19:18:06.296Z,96124.69
2023-05-13T19:20:33.878Z,96135.59
2023-05-13T19:23:01.433Z,96129.72
2023-05-13T19:25:29.139Z,96139.78
2023-05-13T19:27:56.897Z,96143.50
2023-05-13T19:30:24.755Z,96150.66
2023-05-13T19:32:52.587Z,96145.59
2023-05-13T19:35:23.348Z,96151.97
2023-05-13T19:37:51.242Z,96155.91
2023-05-13T19:40:18.903Z,96155.13
2023-05-13T19:42:46.510Z,96157.44
2023-05-13T19:45:14.153Z,96155.84
2023-05-13T19:47:41.788Z,96147.88
2023-05-13T19:50:09.828Z,96152.13
2023-05-13T19:52:40.494Z,96156.41
2023-05-13T19:55:09.355Z,96154.78
2023-05-13T19:57:36.886Z,96155.59
2023-05-13T20:00:05.542Z,96157.19
2023-05-13T20:02:33.187Z,96161.72
2023-05-13T20:05:00.826Z,96151.09
2023-05-13T20:07:28.453Z,96154.53
2023-05-13T20:09:57.637Z,96159.06
2023-05-13T20:12:25.862Z,96162.75
2023-05-13T20:14:56.033Z,96169.97
2023-05-13T20:17:23.828Z,96157.69
2023-05-13T20:19:53.748Z,96158.75
2023-05-13T20:22:21.763Z,96163.84
2023-05-13T20:24:50.964Z,96162.22
2023-05-13T20:27:19.906Z,96165.13
2023-05-13T20:29:49.111Z,96162.44
2023-05-13T20:32:18.334Z,96165.91
2023-05-13T20:34:45.973Z,96163.25
2023-05-13T20:37:14.100Z,96159.78
2023-05-13T20:39:41.670Z,96154.47
2023-05-13T20:42:10.691Z,96153.66
2023-05-13T20:44:39.585Z,96150.44
2023-05-13T20:47:07.721Z,96154.16
2023-05-13T20:49:35.720Z,96156.81
2023-05-13T20:52:05.795Z,96151.72
2023-05-13T20:54:34.604Z,96155.91
2023-05-13T20:57:03.250Z,96152.69
2023-05-13T20:59:31.099Z,96151.06
2023-05-13T21:02:00.011Z,96152.13
2023-05-13T21:04:27.855Z,96151.31
2023-05-13T21:06:55.537Z,96150.75
2023-05-13T21:09:23.072Z,96152.63
2023-05-13T21:11:50.694Z,96152.84
2023-05-13T21:14:18.344Z,96154.69
2023-05-13T21:16:45.907Z,96144.03
2023-05-13T21:19:22.332Z,96140.59
2023-05-13T21:21:50.241Z,96142.44
2023-05-13T21:24:18.812Z,96141.38
2023-05-13T21:26:46.652Z,96137.38
2023-05-13T21:29:14.295Z,96138.41
2023-05-13T21:31:42.537Z,96139.44
2023-05-13T21:34:10.187Z,96143.19
2023-05-13T21:36:39.781Z,96143.66
2023-05-13T21:39:10.166Z,96150.00
2023-05-13T21:41:38.111Z,96147.81
2023-05-13T21:44:06.044Z,96143.56
2023-05-13T21:46:33.671Z,96142.97
2023-05-13T21:49:01.354Z,96135.25
2023-05-13T21:51:29.455Z,96133.66
2023-05-13T21:53:58.717Z,96144.28
2023-05-13T21:56:26.500Z,96139.41
2023-05-13T21:58:54.148Z,96136.16
2023-05-13T22:01:22.073Z,96134.56
2023-05-13T22:03:49.692Z,96131.34
2023-05-13T22:06:17.503Z,96127.06
2023-05-13T22:08:45.475Z,96127.31
2023-05-13T22:11:14.474Z,96129.66
2023-05-13T22:13:42.226Z,96128.81
2023-05-13T22:16:09.947Z,96130.94
2023-05-13T22:18:38.032Z,96125.59
2023-05-13T22:21:05.710Z,96123.19
2023-05-13T22:23:33.245Z,96122.38
2023-05-13T22:26:00.851Z,96132.44
2023-05-13T22:28:29.742Z,96128.41
2023-05-13T22:30:57.426Z,96126.81
2023-05-13T22:33:25.082Z,96127.03
2023-05-13T22:35:52.856Z,96134.22
2023-05-13T22:38:20.405Z,96131.78
2023-05-13T22:40:48.062Z,96128.31
2023-05-13T22:43:15.634Z,96124.84
2023-05-13T22:45:44.671Z,96118.97
2023-05-13T22:48:12.310Z,96126.13
2023-05-13T22:50:40.225Z,96128.00
2023-05-13T22:53:07.846Z,96119.44
2023-05-13T22:55:35.448Z,96119.69
2023-05-13T22:58:03.076Z,96127.09
2023-05-13T23:00:30.623Z,96124.44
2023-05-13T23:02:59.620Z,96118.53
2023-05-13T23:05:27.317Z,96116.94
2023-05-13T23:07:54.974Z,96121.44
2023-05-13T23:10:22.661Z,96116.34
2023-05-13T23:12:50.373Z,96122.72
2023-05-13T23:15:18.208Z,96122.72
2023-05-13T23:17:45.896Z,96115.22
2023-05-13T23:20:14.935Z,96111.19
2023-05-13T23:22:42.604Z,96109.56
2023-05-13T23:25:10.869Z,96106.91
2023-05-13T23:27:38.418Z,96103.69
2023-05-13T23:30:07.196Z,96103.69
2023-05-13T23:32:34.861Z,96105.53
2023-05-13T23:35:02.847Z,96092.50
2023-05-13T23:37:31.792Z,96097.22
2023-05-13T23:39:59.383Z,96093.75
2023-05-13T23:42:27.043Z,96095.88
2023-05-13T23:44:55.029Z,96096.66
2023-05-13T23:47:22.757Z,96095.06
2023-05-13T23:49:50.462Z,96084.91
2023-05-13T23:52:18.162Z,96089.41
2023-05-13T23:54:47.166Z,96078.22
2023-05-13T23:57:14.753Z,96083.75
2023-05-13T23:59:42.360Z,96081.34
